createdAt,value
2022-08-16T00:00:20.386Z,9.57
2022-08-16T00:02:51.715Z,9.60
2022-08-16T00:05:21.029Z,9.65
2022-08-16T00:07:49.770Z,9.07
2022-08-16T00:10:28.657Z,9.88
2022-08-16T00:12:56.952Z,9.15
2022-08-16T00:15:52.211Z,9.75
2022-08-16T00:18:29.899Z,9.60
2022-08-16T00:20:59.985Z,8.63
2022-08-16T00:23:40.363Z,8.82
2022-08-16T00:26:35.476Z,9.25
2022-08-16T00:29:03.548Z,9.63
2022-08-16T00:31:58.944Z,9.07
2022-08-16T00:34:44.167Z,9.02
2022-08-16T00:37:11.592Z,9.43
2022-08-16T00:39:39.698Z,9.60
2022-08-16T00:42:10.416Z,9.45
2022-08-16T00:44:40.855Z,9.93
2022-08-16T00:47:16.304Z,10.25
2022-08-16T00:49:45.036Z,9.40
2022-08-16T00:52:29.951Z,9.30
2022-08-16T00:54:59.668Z,9.13
2022-08-16T00:57:59.051Z,10.48
2022-08-16T01:00:19.945Z,9.48
2022-08-16T01:02:52.117Z,9.25
2022-08-16T01:05:23.964Z,9.65
2022-08-16T01:07:53.611Z,9.60
2022-08-16T01:10:32.829Z,10.00
2022-08-16T01:13:07.781Z,9.95
2022-08-16T01:15:42.986Z,10.80
2022-08-16T01:18:39.226Z,9.35
2022-08-16T01:21:22.553Z,10.68
2022-08-16T01:24:02.275Z,9.90
2022-08-16T01:26:34.795Z,10.15
2022-08-16T01:29:10.438Z,10.93
2022-08-16T01:31:42.515Z,9.90
2022-08-16T01:34:25.237Z,10.65
2022-08-16T01:37:04.534Z,9.93
2022-08-16T01:39:35.534Z,10.02
2022-08-16T01:42:07.708Z,10.13
2022-08-16T01:44:41.730Z,10.27
2022-08-16T01:47:12.123Z,9.65
2022-08-16T01:50:40.963Z,10.57
2022-08-16T01:52:31.970Z,10.52
2022-08-16T01:55:02.478Z,10.18
2022-08-16T01:57:31.589Z,9.77
2022-08-16T02:00:00.591Z,10.60
2022-08-16T02:02:29.199Z,10.57
2022-08-16T02:04:58.070Z,10.68
2022-08-16T02:07:26.098Z,10.48
2022-08-16T02:09:57.481Z,10.20
2022-08-16T02:12:49.512Z,10.57
2022-08-16T02:15:24.823Z,10.90
2022-08-16T02:17:54.193Z,11.15
2022-08-16T02:20:26.199Z,11.48
2022-08-16T02:22:55.865Z,11.05
2022-08-16T02:25:24.666Z,11.57
2022-08-16T02:27:54.074Z,11.45
2022-08-16T02:30:35.765Z,11.18
2022-08-16T02:33:07.471Z,11.68
2022-08-16T02:35:54.542Z,11.20
2022-08-16T02:38:25.729Z,11.18
2022-08-16T02:40:54.945Z,10.95
2022-08-16T02:43:26.933Z,10.85
2022-08-16T02:45:55.772Z,11.38
2022-08-16T02:48:28.983Z,11.10
2022-08-16T02:51:05.933Z,11.63
2022-08-16T02:53:43.035Z,12.32
2022-08-16T02:56:14.620Z,11.18
2022-08-16T02:58:45.888Z,11.25
2022-08-16T03:01:24.101Z,12.20
2022-08-16T03:04:39.482Z,11.23
2022-08-16T03:06:43.219Z,11.68
2022-08-16T03:09:14.941Z,11.85
2022-08-16T03:11:44.698Z,12.10
2022-08-16T03:14:14.208Z,11.48
2022-08-16T03:16:59.437Z,11.57
2022-08-16T03:19:47.531Z,11.90
2022-08-16T03:22:19.244Z,12.38
2022-08-16T03:24:57.889Z,12.20
2022-08-16T03:27:31.203Z,11.57
2022-08-16T03:30:16.333Z,12.48
2022-08-16T03:32:47.351Z,12.45
2022-08-16T03:35:18.170Z,12.82
2022-08-16T03:38:01.732Z,12.43
2022-08-16T03:40:33.811Z,12.25
2022-08-16T03:43:20.518Z,12.50
2022-08-16T03:45:52.539Z,12.95
2022-08-16T03:48:36.739Z,12.30
2022-08-16T03:51:10.176Z,13.57
2022-08-16T03:53:41.210Z,12.05
2022-08-16T03:56:19.536Z,12.27
2022-08-16T03:58:48.574Z,13.90
2022-08-16T04:01:20.882Z,12.60
2022-08-16T04:03:50.125Z,12.73
2022-08-16T04:06:18.743Z,12.82
2022-08-16T04:08:48.066Z,13.20
2022-08-16T04:11:17.189Z,13.52
2022-08-16T04:13:59.286Z,12.68
2022-08-16T04:16:31.271Z,12.45
2022-08-16T04:19:02.244Z,12.15
2022-08-16T04:21:32.545Z,13.35
2022-08-16T04:24:00.927Z,12.77
2022-08-16T04:26:30.805Z,13.73
2022-08-16T04:29:16.794Z,13.05
2022-08-16T04:31:56.913Z,13.13
2022-08-16T04:34:27.821Z,12.75
2022-08-16T04:36:56.617Z,13.10
2022-08-16T04:39:36.510Z,13.25
2022-08-16T04:42:13.438Z,13.75
2022-08-16T04:44:53.389Z,13.18
2022-08-16T04:47:31.283Z,13.45
2022-08-16T04:50:00.245Z,13.98
2022-08-16T04:52:34.900Z,13.35
2022-08-16T04:55:07.438Z,15.27
2022-08-16T04:57:36.781Z,13.82
2022-08-16T05:00:32.609Z,14.20
2022-08-16T05:02:58.943Z,14.10
2022-08-16T05:05:30.641Z,14.23
2022-08-16T05:08:29.598Z,13.15
2022-08-16T05:10:53.456Z,13.73
2022-08-16T05:13:40.915Z,14.77
2022-08-16T05:16:11.854Z,14.38
2022-08-16T05:18:45.818Z,14.65
2022-08-16T05:21:15.109Z,15.23
2022-08-16T05:23:51.468Z,14.63
2022-08-16T05:26:20.524Z,13.93
2022-08-16T05:28:55.311Z,14.13
2022-08-16T05:31:24.099Z,14.05
2022-08-16T05:34:00.725Z,14.15
2022-08-16T05:36:34.115Z,15.35
2022-08-16T05:39:06.485Z,14.45
2022-08-16T05:41:44.793Z,15.77
2022-08-16T05:44:23.662Z,16.02
2022-08-16T05:46:54.605Z,15.60
2022-08-16T05:49:25.360Z,14.63
2022-08-16T05:52:11.288Z,15.15
2022-08-16T05:54:46.545Z,14.23
2022-08-16T05:57:16.744Z,14.25
2022-08-16T05:59:45.492Z,14.00
2022-08-16T06:02:14.337Z,14.50
2022-08-16T06:04:45.227Z,14.10
2022-08-16T06:07:24.991Z,14.30
2022-08-16T06:09:58.234Z,14.98
2022-08-16T06:12:29.398Z,13.90
2022-08-16T06:14:59.877Z,13.68
2022-08-16T06:17:42.875Z,13.88
2022-08-16T06:20:18.495Z,13.73
2022-08-16T06:23:03.068Z,14.40
2022-08-16T06:25:36.321Z,15.73
2022-08-16T06:28:09.481Z,14.25
2022-08-16T06:30:43.984Z,14.48
2022-08-16T06:33:22.013Z,14.45
2022-08-16T06:35:55.196Z,14.50
2022-08-16T06:38:33.413Z,14.55
2022-08-16T06:41:04.942Z,14.30
2022-08-16T06:43:34.334Z,14.90
2022-08-16T06:46:04.178Z,14.77
2022-08-16T06:48:33.894Z,14.57
2022-08-16T06:51:04.705Z,13.90
2022-08-16T06:53:36.450Z,14.60
2022-08-16T06:56:14.590Z,14.23
2022-08-16T06:58:47.713Z,13.43
2022-08-16T07:01:16.069Z,13.82
2022-08-16T07:03:55.775Z,14.20
2022-08-16T07:06:27.288Z,13.35
2022-08-16T07:08:56.100Z,13.50
2022-08-16T07:11:45.809Z,12.57
2022-08-16T07:14:24.693Z,13.38
2022-08-16T07:16:58.346Z,13.55
2022-08-16T07:20:01.712Z,12.52
2022-08-16T07:22:37.459Z,12.80
2022-08-16T07:25:08.373Z,12.10
2022-08-16T07:27:38.165Z,12.55
2022-08-16T07:30:39.015Z,13.20
2022-08-16T07:32:57.360Z,12.88
2022-08-16T07:35:26.178Z,12.63
2022-08-16T07:37:55.609Z,11.90
2022-08-16T07:40:48.995Z,12.85
2022-08-16T07:43:11.903Z,13.48
2022-08-16T07:45:42.231Z,12.93
2022-08-16T07:48:12.467Z,12.63
2022-08-16T07:50:56.494Z,11.30
2022-08-16T07:53:28.913Z,11.35
2022-08-16T07:55:57.853Z,12.00
2022-08-16T07:58:34.525Z,10.85
2022-08-16T08:01:10.657Z,11.38
2022-08-16T08:03:42.509Z,11.65
2022-08-16T08:06:11.877Z,12.65
2022-08-16T08:08:51.668Z,12.15
2022-08-16T08:11:23.572Z,12.75
2022-08-16T08:13:53.436Z,11.95
2022-08-16T08:16:30.715Z,12.70
2022-08-16T08:19:02.276Z,12.52
2022-08-16T08:21:58.523Z,11.98
2022-08-16T08:24:31.652Z,11.68
2022-08-16T08:27:02.081Z,11.07
2022-08-16T08:29:37.203Z,10.32
2022-08-16T08:32:57.572Z,10.13
2022-08-16T08:35:00.270Z,10.32
2022-08-16T08:37:53.824Z,10.07
2022-08-16T08:40:24.567Z,9.85
2022-08-16T08:42:57.776Z,9.85
2022-08-16T08:45:46.973Z,10.05
2022-08-16T08:48:33.518Z,10.00
2022-08-16T08:51:03.482Z,10.65
2022-08-16T08:53:32.691Z,9.40
2022-08-16T08:56:23.021Z,10.10
2022-08-16T08:58:54.061Z,10.30
2022-08-16T09:01:31.709Z,10.02
2022-08-16T09:04:05.451Z,9.77
2022-08-16T09:06:34.140Z,10.55
2022-08-16T09:09:03.471Z,10.48
2022-08-16T09:11:40.583Z,10.05
2022-08-16T09:14:24.133Z,10.25
2022-08-16T09:17:01.662Z,10.20
2022-08-16T09:19:33.700Z,9.23
2022-08-16T09:22:02.280Z,9.57
2022-08-16T09:24:46.817Z,9.10
2022-08-16T09:27:20.082Z,9.05
2022-08-16T09:29:48.787Z,8.60
2022-08-16T09:32:30.723Z,8.90
2022-08-16T09:34:59.961Z,9.27
2022-08-16T09:37:29.535Z,8.98
2022-08-16T09:39:59.684Z,9.63
2022-08-16T09:42:30.562Z,9.60
2022-08-16T09:45:18.820Z,9.90
2022-08-16T09:47:57.593Z,9.38
2022-08-16T09:50:37.179Z,11.18
2022-08-16T09:53:15.049Z,9.43
2022-08-16T09:55:49.518Z,9.48
2022-08-16T09:58:37.648Z,8.85
2022-08-16T10:01:08.567Z,8.82
2022-08-16T10:04:02.233Z,9.00
2022-08-16T10:06:33.226Z,10.38
2022-08-16T10:09:05.866Z,10.13
2022-08-16T10:11:52.701Z,9.50
2022-08-16T10:14:32.808Z,8.90
2022-08-16T10:17:03.542Z,9.18
2022-08-16T10:19:32.462Z,9.70
2022-08-16T10:22:04.841Z,9.30
2022-08-16T10:24:34.300Z,8.52
2022-08-16T10:27:21.775Z,9.63
2022-08-16T10:30:01.218Z,9.43
2022-08-16T10:32:35.551Z,8.48
2022-08-16T10:35:08.411Z,8.25
2022-08-16T10:37:36.700Z,8.38
2022-08-16T10:40:28.608Z,7.95
2022-08-16T10:42:56.138Z,8.43
2022-08-16T10:45:27.245Z,9.00
2022-08-16T10:48:03.146Z,9.30
2022-08-16T10:50:32.457Z,8.80
2022-08-16T10:53:05.817Z,9.00
2022-08-16T10:55:40.446Z,8.75
2022-08-16T10:58:17.131Z,8.23
2022-08-16T11:00:47.824Z,8.60
2022-08-16T11:06:07.455Z,8.98
2022-08-16T11:08:43.363Z,8.38
2022-08-16T11:14:05.927Z,8.10
2022-08-16T11:19:30.284Z,8.93
2022-08-16T11:22:38.878Z,9.38
2022-08-16T11:24:46.631Z,8.30
2022-08-16T11:27:35.924Z,8.35
2022-08-16T11:30:09.174Z,8.27
2022-08-16T11:32:44.369Z,8.10
2022-08-16T11:35:16.595Z,8.27
2022-08-16T11:40:40.860Z,8.13
2022-08-16T11:43:16.665Z,7.78
2022-08-16T11:45:53.913Z,7.88
2022-08-16T11:48:24.796Z,7.57
2022-08-16T11:50:52.857Z,7.35
2022-08-16T11:53:21.978Z,7.90
2022-08-16T11:55:54.602Z,8.00
2022-08-16T11:58:24.719Z,7.45
2022-08-16T12:00:54.995Z,7.05
2022-08-16T12:03:31.119Z,7.35
2022-08-16T12:06:08.118Z,7.40
2022-08-16T12:08:39.835Z,7.15
2022-08-16T12:11:09.811Z,7.38
2022-08-16T12:13:38.264Z,7.65
2022-08-16T12:16:09.122Z,7.60
2022-08-16T12:18:40.129Z,7.93
2022-08-16T12:21:09.771Z,8.52
2022-08-16T12:23:38.250Z,8.25
2022-08-16T12:26:10.588Z,8.75
2022-08-16T12:28:56.191Z,9.02
2022-08-16T12:31:25.735Z,8.07
2022-08-16T12:33:57.546Z,9.02
2022-08-16T12:36:26.174Z,8.43
2022-08-16T12:38:58.038Z,9.88
2022-08-16T12:41:27.012Z,8.80
2022-08-16T12:43:57.193Z,8.02
2022-08-16T12:46:30.933Z,9.13
2022-08-16T12:49:01.098Z,7.97
2022-08-16T12:51:58.293Z,7.32
2022-08-16T12:54:21.406Z,5.70
2022-08-16T12:56:50.769Z,5.20
2022-08-16T12:59:20.859Z,4.53
2022-08-16T13:01:50.327Z,3.90
2022-08-16T13:04:24.372Z,2.30
2022-08-16T13:06:53.299Z,3.15
2022-08-16T13:09:26.018Z,2.95
2022-08-16T13:12:04.328Z,2.92
2022-08-16T13:14:34.887Z,4.03
2022-08-16T13:17:06.601Z,4.47
2022-08-16T13:20:05.957Z,4.03
2022-08-16T13:22:25.970Z,3.58
2022-08-16T13:24:54.634Z,4.53
2022-08-16T13:27:34.899Z,4.55
2022-08-16T13:30:35.508Z,4.40
2022-08-16T13:33:01.262Z,4.03
2022-08-16T13:35:34.577Z,4.30
2022-08-16T13:38:03.232Z,5.28
2022-08-16T13:40:31.474Z,4.90
2022-08-16T13:43:00.077Z,4.68
2022-08-16T13:45:28.365Z,4.85
2022-08-16T13:48:06.533Z,4.78
2022-08-16T13:50:51.611Z,5.25
2022-08-16T13:53:24.279Z,4.57
2022-08-16T13:55:58.497Z,5.20
2022-08-16T13:58:36.677Z,5.38
2022-08-16T14:01:09.660Z,5.45
2022-08-16T14:03:39.513Z,6.10
2022-08-16T14:06:10.841Z,5.38
2022-08-16T14:08:42.186Z,5.07
2022-08-16T14:11:12.365Z,5.47
2022-08-16T14:13:42.096Z,5.50
2022-08-16T14:16:24.287Z,5.75
2022-08-16T14:18:58.330Z,7.13
2022-08-16T14:21:27.764Z,6.03
2022-08-16T14:24:07.801Z,6.28
2022-08-16T14:26:45.092Z,6.47
2022-08-16T14:29:13.307Z,7.22
2022-08-16T14:31:41.604Z,7.07
2022-08-16T14:34:11.362Z,6.63
2022-08-16T14:36:42.080Z,6.97
2022-08-16T14:39:10.296Z,7.30
2022-08-16T14:41:39.591Z,7.13
2022-08-16T14:44:09.402Z,7.63
2022-08-16T14:46:37.784Z,7.68
2022-08-16T14:49:09.095Z,7.55
2022-08-16T14:51:37.556Z,7.25
2022-08-16T14:54:11.314Z,7.40
2022-08-16T14:56:46.646Z,8.50
2022-08-16T14:59:15.070Z,7.15
2022-08-16T15:01:58.986Z,7.72
2022-08-16T15:04:37.873Z,7.22
2022-08-16T15:07:10.805Z,7.65
2022-08-16T15:09:44.640Z,7.05
2022-08-16T15:12:31.026Z,7.30
2022-08-16T15:15:04.566Z,7.22
2022-08-16T15:17:42.182Z,6.47
2022-08-16T15:20:23.077Z,6.90
2022-08-16T15:22:55.249Z,6.95
2022-08-16T15:25:29.611Z,7.00
2022-08-16T15:27:58.818Z,6.90
2022-08-16T15:30:47.742Z,6.97
2022-08-16T15:33:18.552Z,7.22
2022-08-16T15:35:52.543Z,7.40
2022-08-16T15:38:55.266Z,6.97
2022-08-16T15:41:13.650Z,7.95
2022-08-16T15:43:41.700Z,8.07
2022-08-16T15:46:35.768Z,8.18
2022-08-16T15:49:12.461Z,7.63
2022-08-16T15:51:43.541Z,7.97
2022-08-16T15:54:20.893Z,7.32
2022-08-16T15:57:05.924Z,7.28
2022-08-16T15:59:48.703Z,7.70
2022-08-16T16:02:29.417Z,8.13
2022-08-16T16:05:00.474Z,8.52
2022-08-16T16:07:30.035Z,7.95
2022-08-16T16:09:59.263Z,8.52
2022-08-16T16:12:51.224Z,8.13
2022-08-16T16:15:18.996Z,9.07
2022-08-16T16:17:52.340Z,8.98
2022-08-16T16:20:24.499Z,8.98
2022-08-16T16:22:57.012Z,9.68
2022-08-16T16:25:26.591Z,9.93
2022-08-16T16:27:59.804Z,9.82
2022-08-16T16:30:33.601Z,8.68
2022-08-16T16:33:20.605Z,8.85
2022-08-16T16:35:55.704Z,9.10
2022-08-16T16:38:28.807Z,8.95
2022-08-16T16:40:57.838Z,9.18
2022-08-16T16:43:31.550Z,9.05
2022-08-16T16:46:00.485Z,10.25
2022-08-16T16:48:35.076Z,9.35
2022-08-16T16:51:09.358Z,8.75
2022-08-16T16:53:42.119Z,8.45
2022-08-16T16:56:20.327Z,8.27
2022-08-16T16:58:56.284Z,7.45
2022-08-16T17:01:41.280Z,8.57
2022-08-16T17:04:19.773Z,7.43
2022-08-16T17:06:53.429Z,7.82
2022-08-16T17:09:21.936Z,7.68
2022-08-16T17:11:54.772Z,7.50
2022-08-16T17:14:32.913Z,7.45
2022-08-16T17:17:13.932Z,7.57
2022-08-16T17:19:42.480Z,7.13
2022-08-16T17:22:14.377Z,7.63
2022-08-16T17:24:45.027Z,6.72
2022-08-16T17:27:18.064Z,7.38
2022-08-16T17:29:51.383Z,7.55
2022-08-16T17:32:33.791Z,8.10
2022-08-16T17:35:18.512Z,8.63
2022-08-16T17:37:51.781Z,8.25
2022-08-16T17:40:34.003Z,8.13
2022-08-16T17:43:13.332Z,8.23
2022-08-16T17:45:43.620Z,8.30
2022-08-16T17:48:12.026Z,8.00
2022-08-16T17:50:41.630Z,9.13
2022-08-16T17:53:11.862Z,8.55
2022-08-16T17:55:42.317Z,8.75
2022-08-16T17:58:23.373Z,8.85
2022-08-16T18:00:56.686Z,9.40
2022-08-16T18:04:07.807Z,9.43
2022-08-16T18:06:16.708Z,8.50
2022-08-16T18:08:48.279Z,8.63
2022-08-16T18:11:18.238Z,8.85
2022-08-16T18:13:46.621Z,9.80
2022-08-16T18:16:17.046Z,10.02
2022-08-16T18:18:46.085Z,9.90
2022-08-16T18:21:33.746Z,9.48
2022-08-16T18:24:02.231Z,9.43
2022-08-16T18:26:30.362Z,9.32
2022-08-16T18:28:58.435Z,10.20
2022-08-16T18:31:27.864Z,10.50
2022-08-16T18:33:56.377Z,9.48
2022-08-16T18:36:24.756Z,9.00
2022-08-16T18:38:54.143Z,9.57
2022-08-16T18:41:25.466Z,10.40
2022-08-16T18:43:55.503Z,9.43
2022-08-16T18:46:45.691Z,9.82
2022-08-16T18:49:17.999Z,10.93
2022-08-16T18:51:46.472Z,10.13
2022-08-16T18:54:18.136Z,10.93
2022-08-16T18:56:57.349Z,10.25
2022-08-16T18:59:28.143Z,11.05
2022-08-16T19:02:00.093Z,11.30
2022-08-16T19:04:47.875Z,12.68
2022-08-16T19:07:21.396Z,12.02
2022-08-16T19:09:49.505Z,12.38
2022-08-16T19:12:17.547Z,13.63
2022-08-16T19:15:08.288Z,10.77
2022-08-16T19:17:41.731Z,13.40
2022-08-16T19:20:11.345Z,12.43
2022-08-16T19:25:46.316Z,12.32
2022-08-16T19:28:52.003Z,10.68
2022-08-16T19:31:06.242Z,11.90
2022-08-16T19:33:36.034Z,12.02
2022-08-16T19:36:05.922Z,12.55
2022-08-16T19:38:34.222Z,14.70
2022-08-16T19:41:02.519Z,13.98
2022-08-16T19:43:30.498Z,13.20
2022-08-16T19:45:58.584Z,13.10
2022-08-16T19:48:26.759Z,12.73
2022-08-16T19:50:56.146Z,13.60
2022-08-16T19:53:24.919Z,12.90
2022-08-16T19:55:52.962Z,12.20
2022-08-16T19:58:21.386Z,13.02
2022-08-16T20:00:51.060Z,12.82
2022-08-16T20:03:24.512Z,12.95
2022-08-16T20:05:53.069Z,12.73
2022-08-16T20:08:22.653Z,11.63
2022-08-16T20:10:51.205Z,12.73
2022-08-16T20:13:21.553Z,14.63
2022-08-16T20:15:50.890Z,17.02
2022-08-16T20:18:24.482Z,17.20
2022-08-16T20:20:53.710Z,18.30
2022-08-16T20:23:25.334Z,17.83
2022-08-16T20:25:55.638Z,18.23
2022-08-16T20:28:52.860Z,18.45
2022-08-16T20:31:12.361Z,18.55
2022-08-16T20:33:40.496Z,18.50
2022-08-16T20:36:09.274Z,19.48
2022-08-16T20:38:47.657Z,18.88
2022-08-16T20:41:15.972Z,18.55
2022-08-16T20:43:44.123Z,18.30
2022-08-16T20:46:14.003Z,17.65
2022-08-16T20:48:42.138Z,17.05
2022-08-16T20:51:11.389Z,17.70
2022-08-16T20:53:39.478Z,17.85
2022-08-16T20:56:10.564Z,17.88
2022-08-16T20:58:38.741Z,18.42
2022-08-16T21:01:07.789Z,17.05
2022-08-16T21:03:36.448Z,16.75
2022-08-16T21:06:05.462Z,16.67
2022-08-16T21:08:52.132Z,17.73
2022-08-16T21:11:23.588Z,17.63
2022-08-16T21:14:00.280Z,17.30
2022-08-16T21:16:28.940Z,19.75
2022-08-16T21:18:57.784Z,18.92
2022-08-16T21:21:31.917Z,17.58
2022-08-16T21:24:02.044Z,19.60
2022-08-16T21:26:31.433Z,17.98
2022-08-16T21:28:59.448Z,18.08
2022-08-16T21:31:27.476Z,17.30
2022-08-16T21:33:56.471Z,17.55
2022-08-16T21:36:35.854Z,17.30
2022-08-16T21:39:06.675Z,16.58
2022-08-16T21:41:38.408Z,16.35
2022-08-16T21:44:06.639Z,16.98
2022-08-16T21:46:34.723Z,18.75
2022-08-16T21:49:04.638Z,18.67
2022-08-16T21:51:33.093Z,19.40
2022-08-16T21:54:01.232Z,17.48
2022-08-16T21:56:29.687Z,16.45
2022-08-16T21:58:58.996Z,16.17
2022-08-16T22:01:27.534Z,15.98
2022-08-16T22:04:03.530Z,18.73
2022-08-16T22:06:44.271Z,16.30
2022-08-16T22:09:15.521Z,14.82
2022-08-16T22:11:43.873Z,15.10
2022-08-16T22:14:13.395Z,16.83
2022-08-16T22:16:43.468Z,18.05
2022-08-16T22:19:13.240Z,16.98
2022-08-16T22:21:41.329Z,17.83
2022-08-16T22:24:10.726Z,17.23
2022-08-16T22:26:43.013Z,16.65
2022-08-16T22:29:15.038Z,18.27
2022-08-16T22:31:44.395Z,17.90
2022-08-16T22:34:13.186Z,17.40
2022-08-16T22:36:41.519Z,18.55
2022-08-16T22:39:12.042Z,14.90
2022-08-16T22:41:42.137Z,16.23
2022-08-16T22:44:10.527Z,17.63
2022-08-16T22:46:40.195Z,17.60
2022-08-16T22:49:08.975Z,17.75
2022-08-16T22:51:37.758Z,18.58
2022-08-16T22:54:39.328Z,17.90
2022-08-16T22:56:54.849Z,16.57
2022-08-16T22:59:24.870Z,17.98
2022-08-16T23:01:54.567Z,16.73
2022-08-16T23:04:23.926Z,17.73
2022-08-16T23:06:52.180Z,16.50
2022-08-16T23:09:20.349Z,17.50
2022-08-16T23:11:48.422Z,16.92
2022-08-16T23:14:16.850Z,18.13
2022-08-16T23:16:47.041Z,17.93
2022-08-16T23:19:17.835Z,17.77
2022-08-16T23:21:48.936Z,17.95
2022-08-16T23:24:19.438Z,17.77
2022-08-16T23:26:49.242Z,17.83
2022-08-16T23:29:24.580Z,16.63
2022-08-16T23:31:55.704Z,16.87
2022-08-16T23:34:26.763Z,17.50
2022-08-16T23:36:54.848Z,18.90
2022-08-16T23:39:23.311Z,17.50
2022-08-16T23:41:51.945Z,17.37
2022-08-16T23:44:55.146Z,16.60
2022-08-16T23:47:08.291Z,15.45
2022-08-16T23:49:58.570Z,17.85
2022-08-16T23:52:53.917Z,17.63
2022-08-16T23:55:16.951Z,17.43
2022-08-16T23:57:46.280Z,17.83
